Temp: 13.6°C   Hum: 83%
  Wind: 2.9mph   Dir: WNW (282°)
  Rain: 0.0mm Rate: 0.0mm/hr
  Pressure: 1007.6mb

Historic data

Bath Spa Weather Station Historical Data
Daily Summary for November 27, 2021 Units:  English    Metric   Both
Daily Weekly Monthly Yearly Custom
  High: Low: Average:
Temperature: 41.6 °F 34.2 °F 38 °F
Dew Point: 36.4 °F 27 °F 32 °F
Humidity: 90% 66.6% 76%
Wind Speed: 20.1mph 3.2mph 11mph
Wind Gust: 42mph - -
Wind- - WNW
Pressure: 29.82 in 29.19 in -
Precipitation: 0.10 in    
Historical Graphs
 
 
Tabular Data for November 27, 2021
Time Temperature Dew Point Pressure Wind Wind Speed Wind Gust Humidity Rainfall Rate (Hourly) solar
00:09 40.4 °F 36.4 °F 29.22 in NW 9 mph 17 mph 82.6% 0.00 in 0 W/m2
00:14 40.6 °F 36.3 °F 29.21 in NW 10.5 mph 21 mph 81.6% 0.00 in 0 W/m2
00:19 40.6 °F 36.1 °F 29.21 in NW 10.6 mph 22 mph 81% 0.00 in 0 W/m2
00:24 40.8 °F 36.3 °F 29.21 in WNW 10.6 mph 22 mph 80.8% 0.00 in 0 W/m2
00:29 41.2 °F 36.3 °F 29.21 in WNW 12.2 mph 25 mph 80% 0.00 in 0 W/m2
00:34 41.4 °F 36.1 °F 29.20 in NW 10.6 mph 25 mph 78.4% 0.01 in 0 W/m2
00:39 41.6 °F 35.9 °F 29.20 in NW 16.2 mph 30 mph 77.3% 0.01 in 0 W/m2
00:44 41.5 °F 35.8 °F 29.20 in NW 12.5 mph 27 mph 77% 0.01 in 0 W/m2
00:49 41.4 °F 35.6 °F 29.20 in NW 15.6 mph 34 mph 77% 0.01 in 0 W/m2
00:54 41.3 °F 35.9 °F 29.20 in WNW 14.6 mph 28 mph 78% 0.01 in 0 W/m2
00:59 40.9 °F 35.8 °F 29.20 in NW 13.4 mph 34 mph 79% 0.01 in 0 W/m2
01:04 40.4 °F 35.7 °F 29.20 in NNW 20.1 mph 34 mph 80.6% 0.01 in 0 W/m2
01:09 39.8 °F 35.7 °F 29.20 in NW 18 mph 33 mph 82% 0.01 in 0 W/m2
01:14 39.6 °F 35.8 °F 29.20 in NW 17.6 mph 26 mph 83% 0.01 in 0 W/m2
01:19 39.3 °F 35.8 °F 29.19 in NW 11.3 mph 30 mph 84% 0.01 in 0 W/m2
01:24 39 °F 35.6 °F 29.19 in NW 15.8 mph 35 mph 84.4% 0.01 in 0 W/m2
01:29 39 °F 35.5 °F 29.20 in NW 12.1 mph 35 mph 84.2% 0.01 in 0 W/m2
01:34 39.3 °F 35.7 °F 29.19 in NNW 16.8 mph 34 mph 84% 0.01 in 0 W/m2
01:39 39.4 °F 35.8 °F 29.19 in NW 18.2 mph 32 mph 84% 0.01 in 0 W/m2
01:44 39.2 °F 35.6 °F 29.19 in NW 14.9 mph 31 mph 84% 0.01 in 0 W/m2
01:49 39 °F 35.4 °F 29.19 in NW 15.4 mph 33 mph 84% 0.01 in 0 W/m2
01:54 39 °F 35.4 °F 29.19 in NNW 18 mph 33 mph 84% 0.01 in 0 W/m2
01:59 38.8 °F 35.5 °F 29.19 in NW 12.8 mph 33 mph 84.8% 0.01 in 0 W/m2
02:04 38.7 °F 35.4 °F 29.20 in NNW 13.8 mph 24 mph 85% 0.01 in 0 W/m2
02:09 38.7 °F 35.4 °F 29.20 in NNW 14.1 mph 26 mph 85% 0.01 in 0 W/m2
02:14 38.8 °F 35.6 °F 29.20 in NW 16.6 mph 28 mph 85% 0.01 in 0 W/m2
02:19 38.9 °F 35.7 °F 29.20 in NNW 13.2 mph 24 mph 85% 0.01 in 0 W/m2
02:24 39 °F 35.8 °F 29.21 in NW 11.3 mph 33 mph 84.8% 0.01 in 0 W/m2
02:29 39.4 °F 35.8 °F 29.21 in NNW 13 mph 23 mph 84% 0.01 in 0 W/m2
02:34 39.6 °F 35.9 °F 29.21 in NNW 17 mph 26 mph 83.4% 0.00 in 0 W/m2
02:39 39.7 °F 36 °F 29.21 in NNW 9.8 mph 24 mph 83% 0.00 in 0 W/m2
02:44 39.7 °F 35.7 °F 29.22 in North 12.2 mph 25 mph 82.2% 0.00 in 0 W/m2
02:49 39.9 °F 35.8 °F 29.22 in NNW 14 mph 30 mph 82% 0.00 in 0 W/m2
02:54 40.2 °F 35.7 °F 29.22 in NNW 16.4 mph 32 mph 81% 0.00 in 0 W/m2
02:59 40.3 °F 35.8 °F 29.22 in NNW 12.6 mph 29 mph 81% 0.00 in 0 W/m2
03:04 40.3 °F 35.8 °F 29.23 in NNW 15 mph 30 mph 81% 0.00 in 0 W/m2
03:09 40 °F 35.5 °F 29.23 in NNW 15.7 mph 28 mph 81% 0.00 in 0 W/m2
03:14 39.9 °F 35.4 °F 29.24 in North 11.6 mph 28 mph 81% 0.00 in 0 W/m2
03:19 39.9 °F 35.4 °F 29.23 in North 12.2 mph 30 mph 81% 0.00 in 0 W/m2
03:24 39.8 °F 35.3 °F 29.24 in NNW 12 mph 33 mph 81% 0.00 in 0 W/m2
03:29 39.9 °F 35.4 °F 29.24 in NNW 13.8 mph 29 mph 81% 0.00 in 0 W/m2
03:34 39.9 °F 35.4 °F 29.25 in NNW 16.4 mph 31 mph 81% 0.00 in 0 W/m2
03:39 40.1 °F 35.2 °F 29.25 in NNW 12 mph 31 mph 80% 0.00 in 0 W/m2
03:44 39.9 °F 35.4 °F 29.26 in North 11.2 mph 27 mph 81% 0.00 in 0 W/m2
03:49 39.7 °F 35.2 °F 29.26 in NW 14.2 mph 24 mph 81% 0.00 in 0 W/m2
03:54 39.5 °F 35.3 °F 29.25 in NW 15.4 mph 30 mph 82% 0.00 in 0 W/m2
03:59 39.2 °F 35.3 °F 29.25 in NNW 13.8 mph 28 mph 82.8% 0.00 in 0 W/m2
04:04 39 °F 35.2 °F 29.26 in NNW 14.2 mph 30 mph 83% 0.00 in 0 W/m2
04:09 39 °F 35.3 °F 29.26 in NNW 9.6 mph 30 mph 83.8% 0.00 in 0 W/m2
04:14 38.8 °F 35.2 °F 29.26 in NNW 10 mph 30 mph 84% 0.00 in 0 W/m2
04:19 38.8 °F 35.2 °F 29.27 in NW 12 mph 21 mph 84% 0.00 in 0 W/m2
04:24 38.7 °F 35.3 °F 29.27 in North 12.9 mph 23 mph 84.6% 0.00 in 0 W/m2
04:29 38.7 °F 35.4 °F 29.27 in NW 9.8 mph 25 mph 85% 0.00 in 0 W/m2
04:34 38.5 °F 35.2 °F 29.28 in NNW 13.5 mph 28 mph 85% 0.00 in 0 W/m2
04:39 38.7 °F 35.4 °F 29.27 in NW 11.6 mph 23 mph 85% 0.00 in 0 W/m2
04:44 38.8 °F 35.5 °F 29.28 in NNW 13.8 mph 21 mph 84.8% 0.00 in 0 W/m2
04:48 39.2 °F 35.5 °F 29.28 in NNW 13.3 mph 37 mph 83.8% 0.00 in 0 W/m2
04:54 39.5 °F 35.4 °F 29.28 in NW 18 mph 30 mph 82.4% 0.00 in 0 W/m2
04:59 39.6 °F 35.4 °F 29.28 in North 12.8 mph 23 mph 82% 0.00 in 0 W/m2
05:04 39.6 °F 35.2 °F 29.29 in NNW 19.6 mph 37 mph 81.6% 0.00 in 0 W/m2
05:09 39.6 °F 35.1 °F 29.29 in NNW 12.2 mph 35 mph 81% 0.00 in 0 W/m2
05:14 39.6 °F 35.1 °F 29.30 in NNW 18.2 mph 35 mph 80.8% 0.00 in 0 W/m2
05:19 39.7 °F 34.9 °F 29.30 in NNW 15 mph 38 mph 80% 0.00 in 0 W/m2
05:24 39.7 °F 34.8 °F 29.31 in NW 9.6 mph 28 mph 79.6% 0.00 in 0 W/m2
05:29 39.7 °F 34.7 °F 29.31 in North 15 mph 31 mph 79.2% 0.00 in 0 W/m2
05:34 39.4 °F 34.5 °F 29.32 in North 14.2 mph 36 mph 80% 0.00 in 0 W/m2
05:39 39 °F 34.4 °F 29.32 in North 16.4 mph 33 mph 80.4% 0.00 in 0 W/m2
05:44 38.8 °F 34.3 °F 29.33 in North 12.2 mph 36 mph 81% 0.00 in 0 W/m2
05:49 38.8 °F 34.3 °F 29.33 in NNW 12.2 mph 25 mph 81% 0.00 in 0 W/m2
05:54 38.9 °F 34.3 °F 29.33 in NNW 13.4 mph 31 mph 80.4% 0.00 in 0 W/m2
05:59 39 °F 34.3 °F 29.34 in North 17.8 mph 23 mph 80% 0.00 in 0 W/m2
06:04 39 °F 34.3 °F 29.34 in NNW 12.2 mph 28 mph 80% 0.00 in 0 W/m2
06:09 38.9 °F 34.3 °F 29.35 in North 8.8 mph 30 mph 80% 0.00 in 0 W/m2
06:14 39 °F 34 °F 29.35 in NNW 12.6 mph 30 mph 79% 0.00 in 0 W/m2
06:19 39 °F 34 °F 29.36 in North 15 mph 29 mph 79% 0.00 in 0 W/m2
06:24 39 °F 33.8 °F 29.36 in North 15 mph 37 mph 78.6% 0.00 in 0 W/m2
06:29 39 °F 33.6 °F 29.37 in North 12 mph 27 mph 78% 0.00 in 0 W/m2
06:34 39 °F 33.6 °F 29.37 in North 9.8 mph 27 mph 78% 0.00 in 0 W/m2
06:39 38.7 °F 33.6 °F 29.38 in NNW 14.3 mph 37 mph 78.8% 0.00 in 0 W/m2
06:44 38.5 °F 33.5 °F 29.38 in NNW 10.4 mph 25 mph 79.2% 0.00 in 0 W/m2
06:49 38 °F 33.3 °F 29.39 in North 14 mph 42 mph 80% 0.00 in 0 W/m2
06:54 37.8 °F 33.3 °F 29.39 in North 10.4 mph 24 mph 81% 0.00 in 0 W/m2
06:59 37.8 °F 33.3 °F 29.39 in North 14.9 mph 29 mph 81% 0.00 in 0 W/m2
07:04 37.8 °F 33.1 °F 29.39 in North 8.8 mph 21 mph 80% 0.00 in 0 W/m2
07:09 37.8 °F 33.1 °F 29.40 in NNW 11.8 mph 24 mph 80% 0.00 in 0 W/m2
07:14 37.8 °F 33.1 °F 29.40 in NNE 12.6 mph 29 mph 80% 0.00 in 0 W/m2
07:19 37.8 °F 33.1 °F 29.41 in NNW 12.6 mph 36 mph 80% 0.00 in 0 W/m2
07:24 37.6 °F 33.1 °F 29.41 in NNW 12 mph 26 mph 81% 0.00 in 0 W/m2
07:29 36.7 °F 33 °F 29.41 in NNW 12.6 mph 28 mph 83.2% 0.00 in 0 W/m2
07:34 36.1 °F 32.9 °F 29.41 in NNW 10.8 mph 28 mph 84.6% 0.00 in 0 W/m2
07:39 36 °F 32.9 °F 29.42 in NNW 5.3 mph 22 mph 85.6% 0.00 in 0 W/m2
07:44 36 °F 33.1 °F 29.42 in NNW 10.2 mph 20 mph 86.2% 0.00 in 0 W/m2
07:49 35.8 °F 33.3 °F 29.43 in North 10.8 mph 25 mph 86.8% 0.01 in 0 W/m2
07:54 35.8 °F 33.3 °F 29.43 in NW 8 mph 18 mph 87% 0.01 in 0 W/m2
07:59 35.9 °F 33.4 °F 29.43 in NNW 10.2 mph 30 mph 87% 0.01 in 5 W/m2
08:04 36.6 °F 33.8 °F 29.44 in North 11 mph 23 mph 86.4% 0.01 in 9 W/m2
08:09 37.1 °F 34 °F 29.44 in NNW 14.8 mph 27 mph 85.2% 0.01 in 9 W/m2
08:14 37.2 °F 33.7 °F 29.44 in NNW 9.2 mph 26 mph 83.6% 0.01 in 12 W/m2
08:19 37.2 °F 33.4 °F 29.45 in NNW 9.8 mph 20 mph 83% 0.01 in 21 W/m2
08:24 37.1 °F 33.3 °F 29.45 in North 9.2 mph 19 mph 83% 0.01 in 25 W/m2
08:29 37.2 °F 33.5 °F 29.46 in North 13.8 mph 29 mph 83.2% 0.01 in 21 W/m2
08:34 37.2 °F 33.6 °F 29.46 in North 17.2 mph 29 mph 83.4% 0.01 in 26 W/m2
08:39 37.4 °F 33.6 °F 29.47 in North 11.1 mph 27 mph 83% 0.01 in 25 W/m2
08:44 37.2 °F 33.4 °F 29.47 in North 12.8 mph 27 mph 83% 0.01 in 19 W/m2
08:49 37.6 °F 33.8 °F 29.47 in North 16 mph 35 mph 83% 0.01 in 19 W/m2
08:54 37.9 °F 33.7 °F 29.48 in NNW 16 mph 33 mph 82% 0.01 in 19 W/m2
08:59 37.9 °F 33.8 °F 29.48 in NNE 13 mph 28 mph 82% 0.01 in 26 W/m2
09:04 37.7 °F 33.5 °F 29.49 in North 14.9 mph 28 mph 82% 0.01 in 58 W/m2
09:09 37 °F 33.4 °F 29.50 in NNW 11.6 mph 29 mph 83.4% 0.01 in 63 W/m2
09:14 36.8 °F 33.4 °F 29.50 in North 9.8 mph 28 mph 84.4% 0.01 in 39 W/m2
09:19 36.6 °F 33.4 °F 29.51 in NW 10.4 mph 28 mph 85% 0.01 in 35 W/m2
09:24 36.7 °F 33.6 °F 29.51 in North 14.6 mph 29 mph 85.6% 0.01 in 39 W/m2
09:29 36.7 °F 33.8 °F 29.52 in NNW 11.5 mph 25 mph 86% 0.01 in 23 W/m2
09:34 36.9 °F 34 °F 29.52 in NNW 14.5 mph 29 mph 86% 0.01 in 58 W/m2
09:39 36.6 °F 33.7 °F 29.52 in NNW 17.4 mph 31 mph 86% 0.02 in 69 W/m2
09:44 35.6 °F 32.8 °F 29.53 in NNW 15.8 mph 26 mph 86.2% 0.03 in 63 W/m2
09:49 34.8 °F 32.3 °F 29.53 in North 11.1 mph 24 mph 87.3% 0.03 in 44 W/m2
09:54 34.5 °F 32.2 °F 29.54 in NNW 8.8 mph 26 mph 88% 0.04 in 33 W/m2
09:59 34.5 °F 32.4 °F 29.54 in North 10.8 mph 24 mph 88.8% 0.04 in 33 W/m2
10:04 34.5 °F 32.5 °F 29.54 in NNW 7.5 mph 17 mph 89% 0.05 in 32 W/m2
10:09 34.7 °F 32.9 °F 29.54 in NNW 8.6 mph 19 mph 90% 0.06 in 33 W/m2
10:14 34.9 °F 33.1 °F 29.55 in NNW 7 mph 17 mph 90% 0.06 in 35 W/m2
10:19 35.1 °F 33.3 °F 29.55 in North 8.8 mph 17 mph 90% 0.06 in 28 W/m2
10:24 35.2 °F 33.4 °F 29.55 in NNW 9.2 mph 22 mph 90% 0.06 in 46 W/m2
10:29 35.7 °F 33.9 °F 29.56 in NNW 8.4 mph 22 mph 90% 0.06 in 69 W/m2
10:34 36 °F 34.2 °F 29.56 in North 9.2 mph 17 mph 90% 0.06 in 67 W/m2
10:39 36.4 °F 34.5 °F 29.56 in NNW 8.4 mph 20 mph 89.8% 0.06 in 67 W/m2
10:44 36.9 °F 34.9 °F 29.56 in NNW 10.4 mph 20 mph 88.8% 0.06 in 107 W/m2
10:49 37.4 °F 35 °F 29.57 in North 11.1 mph 26 mph 87.8% 0.05 in 98 W/m2
10:54 38 °F 35 °F 29.57 in North 12.1 mph 28 mph 85.8% 0.04 in 91 W/m2
10:59 38.3 °F 34.7 °F 29.57 in North 11.4 mph 27 mph 83.8% 0.03 in 98 W/m2
11:04 38.7 °F 34.8 °F 29.57 in North 14.8 mph 23 mph 82.8% 0.02 in 113 W/m2
11:09 38.8 °F 34.7 °F 29.57 in NNW 9.8 mph 22 mph 81.8% 0.02 in 132 W/m2
11:14 39.2 °F 34.6 °F 29.57 in NNE 15 mph 25 mph 80.6% 0.02 in 132 W/m2
11:19 39.5 °F 34.5 °F 29.57 in NW 12.5 mph 30 mph 79.4% 0.02 in 111 W/m2
11:24 39.7 °F 34.6 °F 29.58 in North 8.6 mph 26 mph 79% 0.01 in 90 W/m2
11:29 39.6 °F 34.4 °F 29.58 in NNW 14.4 mph 27 mph 78.6% 0.01 in 120 W/m2
11:34 39.9 °F 34.5 °F 29.59 in North 10.8 mph 32 mph 78% 0.01 in 111 W/m2
11:39 40.1 °F 34.3 °F 29.59 in North 13.2 mph 22 mph 77% 0.01 in 111 W/m2
11:44 40.3 °F 34.3 °F 29.59 in NNE 17.6 mph 29 mph 76.6% 0.00 in 165 W/m2
11:49 40.3 °F 33.9 °F 29.59 in North 15.6 mph 34 mph 75.2% 0.00 in 102 W/m2
11:54 40.3 °F 33.9 °F 29.59 in North 8.2 mph 28 mph 75.2% 0.00 in 102 W/m2
11:59 40.3 °F 34 °F 29.59 in NNW 15.6 mph 29 mph 75.6% 0.00 in 171 W/m2
12:04 40.5 °F 34 °F 29.59 in North 15.1 mph 24 mph 75% 0.00 in 116 W/m2
12:09 40.5 °F 33.8 °F 29.60 in North 12.8 mph 30 mph 74.4% 0.00 in 104 W/m2
12:14 40.5 °F 33.6 °F 29.60 in NNW 15 mph 33 mph 73.8% 0.00 in 118 W/m2
12:19 40.5 °F 33.5 °F 29.60 in North 15.9 mph 32 mph 73.6% 0.00 in 132 W/m2
12:24 40.5 °F 33.5 °F 29.60 in NNE 15.2 mph 27 mph 73.4% 0.00 in 239 W/m2
12:29 40.6 °F 33.6 °F 29.61 in North 13.4 mph 27 mph 73.2% 0.00 in 246 W/m2
12:34 40.8 °F 33.5 °F 29.61 in NNE 15.1 mph 30 mph 72.3% 0.00 in 246 W/m2
12:39 40.8 °F 33.2 °F 29.60 in North 15.6 mph 32 mph 71.2% 0.00 in 239 W/m2
12:44 41 °F 32.9 °F 29.61 in North 15 mph 27 mph 70.2% 0.00 in 237 W/m2
12:49 41.1 °F 33.1 °F 29.60 in NNE 16.6 mph 33 mph 70.2% 0.00 in 243 W/m2
12:54 41 °F 32.7 °F 29.61 in NNE 15 mph 40 mph 69.6% 0.00 in 236 W/m2
12:59 40.6 °F 32.3 °F 29.62 in NNW 17.5 mph 40 mph 69.3% 0.00 in 107 W/m2
13:04 40.5 °F 32.1 °F 29.62 in North 12.5 mph 27 mph 69.4% 0.00 in 65 W/m2
13:09 40.3 °F 32 °F 29.62 in North 16.6 mph 34 mph 69.6% 0.00 in 62 W/m2
13:14 40.1 °F 32 °F 29.62 in NNW 12.8 mph 23 mph 70% 0.00 in 70 W/m2
13:19 39.9 °F 31.8 °F 29.63 in North 9.9 mph 25 mph 70% 0.00 in 63 W/m2
13:24 39.9 °F 31.8 °F 29.63 in North 15.4 mph 29 mph 70% 0.00 in 195 W/m2
13:29 40.3 °F 32 °F 29.63 in NNW 12 mph 26 mph 69.4% 0.00 in 193 W/m2
13:34 40.5 °F 32 °F 29.63 in North 13.4 mph 36 mph 69% 0.00 in 155 W/m2
13:39 40.5 °F 32.1 °F 29.63 in North 11.6 mph 22 mph 69.4% 0.00 in 90 W/m2
13:44 40.3 °F 32.1 °F 29.64 in North 11.5 mph 28 mph 69.8% 0.00 in 88 W/m2
13:49 40.2 °F 32 °F 29.64 in North 12.6 mph 26 mph 69.6% 0.00 in 113 W/m2
13:54 40.2 °F 31.9 °F 29.64 in North 15.1 mph 36 mph 69.5% 0.00 in 109 W/m2
13:59 40.2 °F 31.9 °F 29.65 in North 12.8 mph 29 mph 69.4% 0.00 in 102 W/m2
14:04 40.1 °F 31.6 °F 29.65 in NNW 12.9 mph 24 mph 69% 0.00 in 88 W/m2
14:09 40 °F 31.5 °F 29.65 in North 11.8 mph 24 mph 69% 0.00 in 90 W/m2
14:14 39.9 °F 31.5 °F 29.65 in NNE 11.6 mph 27 mph 69% 0.00 in 90 W/m2
14:19 40 °F 31.5 °F 29.65 in North 13.8 mph 24 mph 68.8% 0.00 in 98 W/m2
14:24 39.9 °F 31.3 °F 29.65 in NNE 14.1 mph 30 mph 68.6% 0.00 in 65 W/m2
14:29 39.8 °F 31.3 °F 29.65 in NNW 8.4 mph 30 mph 68.8% 0.00 in 39 W/m2
14:34 39.7 °F 31.1 °F 29.65 in NNW 13.4 mph 27 mph 68.6% 0.00 in 67 W/m2
14:39 39.6 °F 31.2 °F 29.66 in NNW 6.2 mph 16 mph 69% 0.00 in 46 W/m2
14:44 39.6 °F 31.1 °F 29.66 in North 14.2 mph 26 mph 69% 0.00 in 35 W/m2
14:49 39.6 °F 31.1 °F 29.66 in North 14 mph 31 mph 69% 0.00 in 35 W/m2
14:54 39.6 °F 31.1 °F 29.67 in NW 10 mph 20 mph 68.8% 0.00 in 37 W/m2
14:59 39.6 °F 30.9 °F 29.68 in North 9.6 mph 23 mph 68.4% 0.00 in 23 W/m2
15:04 39.6 °F 30.7 °F 29.68 in NNW 12.3 mph 23 mph 68% 0.00 in 21 W/m2
15:09 39.6 °F 30.7 °F 29.68 in NNW 13.1 mph 25 mph 68% 0.00 in 23 W/m2
15:14 39.6 °F 30.5 °F 29.68 in NNW 10.4 mph 23 mph 67.2% 0.00 in 26 W/m2
15:19 39.6 °F 30.4 °F 29.69 in North 11.3 mph 23 mph 67% 0.00 in 32 W/m2
15:24 39.6 °F 30.7 °F 29.69 in NNW 6.6 mph 17 mph 68% 0.00 in 32 W/m2
15:29 39.4 °F 30.6 °F 29.69 in North 10.6 mph 25 mph 68% 0.00 in 26 W/m2
15:34 39.4 °F 30.7 °F 29.69 in NNW 5.9 mph 16 mph 68.4% 0.00 in 28 W/m2
15:39 39.3 °F 30.5 °F 29.69 in North 8.3 mph 16 mph 68% 0.00 in 14 W/m2
15:44 39.2 °F 30.4 °F 29.69 in North 12.5 mph 23 mph 68% 0.00 in 11 W/m2
15:49 39.2 °F 30.2 °F 29.70 in North 10 mph 26 mph 67.6% 0.00 in 9 W/m2
15:54 39 °F 30.1 °F 29.70 in North 7 mph 26 mph 67.8% 0.00 in 7 W/m2
15:59 39 °F 29.9 °F 29.70 in NNW 7.6 mph 17 mph 67.2% 0.00 in 7 W/m2
16:04 39 °F 29.9 °F 29.70 in NNW 8.5 mph 19 mph 67.2% 0.00 in 5 W/m2
16:09 39 °F 29.8 °F 29.71 in NW 11.2 mph 20 mph 67% 0.00 in 0 W/m2
16:14 39 °F 29.8 °F 29.71 in NNW 14 mph 23 mph 67% 0.00 in 0 W/m2
16:19 38.9 °F 29.9 °F 29.72 in NNW 4.5 mph 18 mph 67.5% 0.00 in 0 W/m2
16:24 38.8 °F 29.8 °F 29.72 in NNW 8.4 mph 19 mph 67.2% 0.00 in 0 W/m2
16:29 38.8 °F 29.7 °F 29.72 in NNW 6.8 mph 18 mph 67% 0.00 in 0 W/m2
16:34 38.8 °F 29.5 °F 29.72 in NNW 11.2 mph 23 mph 66.6% 0.00 in 0 W/m2
16:39 38.7 °F 29.5 °F 29.72 in NW 12.4 mph 21 mph 66.8% 0.00 in 0 W/m2
16:44 38.7 °F 29.5 °F 29.73 in NNW 7.6 mph 23 mph 67% 0.00 in 0 W/m2
16:49 38.7 °F 29.5 °F 29.73 in NNW 10 mph 23 mph 67% 0.00 in 0 W/m2
16:54 38.5 °F 29.3 °F 29.73 in NNW 7.8 mph 16 mph 67% 0.00 in 0 W/m2
16:59 38.5 °F 29.3 °F 29.73 in NNW 9.4 mph 27 mph 67% 0.00 in 0 W/m2
17:04 38.5 °F 29.2 °F 29.73 in North 9 mph 21 mph 66.8% 0.00 in 0 W/m2
17:09 38.2 °F 29 °F 29.73 in NNW 7 mph 19 mph 67% 0.00 in 0 W/m2
17:14 38.1 °F 28.9 °F 29.73 in North 9.4 mph 18 mph 67% 0.00 in 0 W/m2
17:19 38 °F 28.9 °F 29.73 in NNW 9.2 mph 19 mph 67% 0.00 in 0 W/m2
17:24 37.9 °F 28.8 °F 29.74 in North 11.2 mph 21 mph 67% 0.00 in 0 W/m2
17:29 37.9 °F 28.9 °F 29.74 in NNW 8.4 mph 15 mph 67.2% 0.00 in 0 W/m2
17:34 37.9 °F 29 °F 29.74 in NNW 10.8 mph 27 mph 67.8% 0.00 in 0 W/m2
17:39 37.9 °F 28.8 °F 29.74 in NNW 9.7 mph 20 mph 67% 0.00 in 0 W/m2
17:44 37.8 °F 28.7 °F 29.74 in NNW 12.4 mph 23 mph 67.2% 0.00 in 0 W/m2
17:49 37.8 °F 28.6 °F 29.74 in NNW 9.6 mph 23 mph 67% 0.00 in 0 W/m2
17:54 37.6 °F 28.4 °F 29.74 in NNW 12.2 mph 27 mph 67% 0.00 in 0 W/m2
17:59 37.6 °F 28.4 °F 29.74 in NW 10.4 mph 20 mph 67% 0.00 in 0 W/m2
18:04 37.4 °F 28.4 °F 29.74 in NNW 8 mph 21 mph 67.4% 0.00 in 0 W/m2
18:09 37.3 °F 28.3 °F 29.75 in NNW 7 mph 21 mph 67.2% 0.00 in 0 W/m2
18:14 37.1 °F 28.5 °F 29.75 in NNW 9.8 mph 19 mph 68% 0.00 in 0 W/m2
18:19 37 °F 28.4 °F 29.75 in NNW 9.6 mph 19 mph 68% 0.00 in 0 W/m2
18:24 37.1 °F 28.3 °F 29.76 in NNW 10.9 mph 23 mph 67.6% 0.00 in 0 W/m2
18:25 37 °F 28.4 °F 29.75 in NNW 6.9 mph 16 mph 68% 0.00 in 0 W/m2
18:34 37 °F 28.3 °F 29.76 in NW 10 mph 18 mph 67.8% 0.00 in 0 W/m2
18:39 37 °F 28.4 °F 29.76 in NNW 7.6 mph 17 mph 68% 0.00 in 0 W/m2
18:44 36.9 °F 28.2 °F 29.77 in NNW 9.8 mph 18 mph 68% 0.00 in 0 W/m2
18:49 36.9 °F 28.3 °F 29.76 in NW 8.1 mph 16 mph 68.2% 0.00 in 0 W/m2
18:54 36.8 °F 28.5 °F 29.77 in NW 9.6 mph 15 mph 69% 0.00 in 0 W/m2
18:59 36.7 °F 28.4 °F 29.77 in NNW 7.2 mph 19 mph 69% 0.00 in 0 W/m2
19:04 36.7 °F 28.4 °F 29.77 in NNW 9 mph 18 mph 69% 0.00 in 0 W/m2
19:09 36.7 °F 28.4 °F 29.77 in NW 11 mph 18 mph 69% 0.00 in 0 W/m2
19:14 36.6 °F 28.3 °F 29.78 in NNW 6.7 mph 17 mph 69% 0.00 in 0 W/m2
19:19 36.4 °F 28.1 °F 29.78 in NNW 6.3 mph 13 mph 69% 0.00 in 0 W/m2
19:24 36.3 °F 28.2 °F 29.78 in NNW 7.6 mph 18 mph 69.6% 0.00 in 0 W/m2
19:29 36.2 °F 28.1 °F 29.78 in NW 6.9 mph 14 mph 69.4% 0.00 in 0 W/m2
19:34 36.1 °F 28.2 °F 29.78 in NW 7.8 mph 16 mph 70% 0.00 in 0 W/m2
19:39 36.1 °F 28.2 °F 29.78 in NW 8.2 mph 15 mph 70% 0.00 in 0 W/m2
19:44 36 °F 28.1 °F 29.78 in NNW 7 mph 16 mph 70% 0.00 in 0 W/m2
19:49 36 °F 28.1 °F 29.78 in NNW 9.6 mph 16 mph 70.2% 0.00 in 0 W/m2
19:54 35.9 °F 28.2 °F 29.78 in NW 7.5 mph 16 mph 70.8% 0.00 in 0 W/m2
19:59 35.8 °F 28.2 °F 29.78 in NNW 6.4 mph 14 mph 71% 0.00 in 0 W/m2
20:04 35.8 °F 28.2 °F 29.79 in NNW 5.8 mph 11 mph 71% 0.00 in 0 W/m2
20:09 35.8 °F 28.2 °F 29.79 in NW 7.1 mph 15 mph 71% 0.00 in 0 W/m2
20:14 35.8 °F 28 °F 29.79 in NW 7.8 mph 15 mph 70.4% 0.00 in 0 W/m2
20:19 35.8 °F 27.9 °F 29.79 in NW 5.4 mph 14 mph 70% 0.00 in 0 W/m2
20:24 35.5 °F 27.9 °F 29.79 in NW 5.2 mph 14 mph 70.8% 0.00 in 0 W/m2
20:29 35.4 °F 27.9 °F 29.79 in NW 7.2 mph 14 mph 71% 0.00 in 0 W/m2
20:34 35.4 °F 27.9 °F 29.79 in NNW 5.5 mph 13 mph 71% 0.00 in 0 W/m2
20:39 35.4 °F 27.9 °F 29.79 in NW 6 mph 13 mph 71% 0.00 in 0 W/m2
20:44 35.4 °F 27.9 °F 29.79 in NNW 4.5 mph 13 mph 71% 0.00 in 0 W/m2
20:49 35.4 °F 27.9 °F 29.80 in NW 4 mph 13 mph 71% 0.00 in 0 W/m2
20:54 35.2 °F 27.7 °F 29.80 in NW 5.4 mph 12 mph 71% 0.00 in 0 W/m2
20:59 35.2 °F 27.7 °F 29.80 in NW 8.7 mph 14 mph 71% 0.00 in 0 W/m2
21:04 35.3 °F 27.8 °F 29.80 in NW 4.8 mph 17 mph 71% 0.00 in 0 W/m2
21:09 35.2 °F 27.7 °F 29.80 in NW 6.8 mph 15 mph 71% 0.00 in 0 W/m2
21:14 35.2 °F 27.7 °F 29.80 in NW 8 mph 14 mph 71% 0.00 in 0 W/m2
21:19 35.3 °F 27.8 °F 29.80 in NW 7.8 mph 17 mph 71% 0.00 in 0 W/m2
21:24 35.4 °F 27.9 °F 29.81 in NW 7.6 mph 14 mph 71% 0.00 in 0 W/m2
21:29 35.3 °F 27.8 °F 29.80 in NW 6.8 mph 14 mph 71% 0.00 in 0 W/m2
21:34 35.2 °F 27.7 °F 29.81 in NW 7.6 mph 16 mph 71% 0.00 in 0 W/m2
21:39 35.2 °F 27.7 °F 29.81 in NW 6 mph 12 mph 71% 0.00 in 0 W/m2
21:44 35.1 °F 27.5 °F 29.81 in NNW 5.3 mph 9 mph 71% 0.00 in 0 W/m2
21:49 35.1 °F 27.5 °F 29.82 in NNW 7.4 mph 14 mph 71% 0.00 in 0 W/m2
21:54 35.1 °F 27.7 °F 29.81 in NNW 4.4 mph 11 mph 71.6% 0.00 in 0 W/m2
21:59 35.1 °F 27.8 °F 29.81 in NNW 4.4 mph 12 mph 71.8% 0.00 in 0 W/m2
22:04 35.1 °F 27.8 °F 29.81 in NW 5.3 mph 14 mph 71.8% 0.00 in 0 W/m2
22:09 34.9 °F 27.7 °F 29.81 in NW 8.6 mph 15 mph 72% 0.00 in 0 W/m2
22:14 34.9 °F 27.7 °F 29.81 in NW 7 mph 15 mph 72% 0.00 in 0 W/m2
22:19 34.9 °F 27.7 °F 29.81 in NNW 5.4 mph 15 mph 72% 0.00 in 0 W/m2
22:24 34.9 °F 27.7 °F 29.81 in NNW 3.4 mph 9 mph 72% 0.00 in 0 W/m2
22:29 34.9 °F 27.7 °F 29.81 in NNW 4.8 mph 13 mph 72% 0.00 in 0 W/m2
22:34 34.9 °F 27.6 °F 29.81 in NNW 8.9 mph 16 mph 71.6% 0.00 in 0 W/m2
22:39 35.1 °F 27.5 °F 29.81 in NNW 7.2 mph 16 mph 71.2% 0.00 in 0 W/m2
22:44 34.9 °F 27.7 °F 29.81 in NNW 6.7 mph 13 mph 71.8% 0.00 in 0 W/m2
22:49 34.9 °F 27.5 °F 29.81 in NNW 6.3 mph 15 mph 71.6% 0.00 in 0 W/m2
22:53 34.9 °F 27.3 °F 29.80 in NW 6.8 mph 20 mph 71% 0.00 in 0 W/m2
22:59 34.9 °F 27.4 °F 29.80 in NNW 7.3 mph 16 mph 71.2% 0.00 in 0 W/m2
23:04 34.9 °F 27.7 °F 29.81 in NNW 6.2 mph 18 mph 72% 0.00 in 0 W/m2
23:09 34.9 °F 27.7 °F 29.81 in NNW 7.8 mph 16 mph 72% 0.00 in 0 W/m2
23:14 34.8 °F 27.6 °F 29.81 in NNW 7 mph 14 mph 72% 0.00 in 0 W/m2
23:19 34.5 °F 27.3 °F 29.81 in NNW 6.6 mph 13 mph 72% 0.00 in 0 W/m2
23:24 34.5 °F 27.3 °F 29.81 in NNW 9.2 mph 14 mph 72% 0.00 in 0 W/m2
23:29 34.6 °F 27.4 °F 29.81 in NNW 7.2 mph 13 mph 72% 0.00 in 0 W/m2
23:34 34.5 °F 27.3 °F 29.82 in NW 7.6 mph 15 mph 72% 0.00 in 0 W/m2
23:39 34.5 °F 27.3 °F 29.81 in NW 4.4 mph 11 mph 72% 0.00 in 0 W/m2
23:44 34.3 °F 27.1 °F 29.82 in WNW 5.5 mph 10 mph 72% 0.00 in 0 W/m2
23:49 34.3 °F 27.1 °F 29.82 in NW 4 mph 9 mph 72% 0.00 in 0 W/m2
23:54 34.2 °F 27 °F 29.82 in WNW 4.9 mph 9 mph 72% 0.00 in 0 W/m2
23:59 34.3 °F 27.1 °F 29.82 in WNW 3.2 mph 10 mph 72% 0.00 in 0 W/m2
Bath Spa Weather
Compliments of Weather Underground - 2 mb